September 26, 2022

Time Code Weather Temp. Visibility Ceiling Wind METAR/SPECI
18:20
M
12 °C 10 km+ 1,300 ft 020° 020° 9 kt METAR ETNT 261620Z 02009KT 9999 SCT007 BKN013 12/11 Q0993 BLACKGRN
17:20
M
12 °C 10 km+ 1,100 ft 020° 020° 9 kt METAR ETNT 261520Z 02009KT 9999 SCT006 BKN011 12/11 Q0993 BLACKGRN
16:20
M
11 °C 6 km 1,200 ft 020° 020° 10 kt METAR ETNT 261420Z 02010KT 6000 -RADZ SCT006 BKN012 11/11 Q0994 BLACKGRN
15:20
I
11 °C 5 km 700 ft 020° 020° 10 kt METAR ETNT 261320Z 02010KT 5000 -RADZ BR BKN007 BKN012 11/11 Q0995 BLACKGRN
14:20
M
11 °C 5 km 1,100 ft 020° 020° 10 kt METAR ETNT 261220Z 02010KT 5000 -RADZ BR SCT008 BKN011 11/11 Q0995 BLACKGRN
14:10
M
11 °C 5 km 1,100 ft 020° 020° 9 kt METAR ETNT 261210Z 02009KT 5000 -RADZ BR SCT008 BKN011 11/11 Q0995 BLACKGRN
13:20
M
11 °C 7 km 4,300 ft 020° 020° 11 kt METAR ETNT 261120Z 02011KT 7000 -RADZ SCT011 BKN043 11/10 Q0996 BLACKWHT
12:20
V
12 °C 10 km+ 5,000 ft 020° 020° 10 kt METAR ETNT 261020Z 02010KT 9999 SCT015 BKN050 12/09 Q0996 BLACKBLU
11:20
V
11 °C 10 km+ 5,000 ft 020° 020° 12 - 22 kt METAR ETNT 260920Z 02012G22KT 9999 SCT013 BKN050 BKN100 11/09 Q0997 BLACKBLU
10:20
V
11 °C 10 km+ 5,000 ft 020° 020° 9 kt METAR ETNT 260820Z 02009KT 9999 -RA FEW010 BKN050 BKN100 11/09 Q0998 BLACKBLU
09:20
V
11 °C 9 km 10,000 ft 020° 020° 9 kt METAR ETNT 260720Z 02009KT 9000 -RA FEW010 SCT060 BKN100 11/09 Q0999 BLACKBLU
08:20
V
10 °C 9 km 5,000 ft 020° 020° 9 kt METAR ETNT 260620Z 02009KT 9000 -RA FEW010 BKN050 10/10 Q0999 BLACKBLU
07:20
V
10 °C 10 km+ 4,000 ft 020° 020° 9 kt METAR ETNT 260520Z 02009KT 9999 -RA FEW010 BKN040 10/10 Q1000 BLACKBLU
06:20
V
10 °C 10 km+ 6,000 ft 020° 020° 9 kt METAR ETNT 260420Z 02009KT 9999 -RA BKN060 10/09 Q1001 BLACKBLU
05:20
L
11 °C 0 m - 020° 020° 10 kt METAR ETNT 260320Z AUTO 02010KT //// // ////// 11/09 Q1002 ///
04:20
L
11 °C 0 m - 020° 020° 7 kt METAR ETNT 260220Z AUTO 02007KT //// // ////// 11/08 Q1003 ///
03:20
L
10 °C 0 m - 360° 360° 7 kt METAR ETNT 260120Z AUTO 36007KT //// // ////// 10/08 Q1004 ///
02:20
L
10 °C 0 m - 360° 360° 5 kt METAR ETNT 260020Z AUTO 36005KT //// // ////// 10/08 Q1005 ///
01:20
L
10 °C 0 m - 360° 360° 5 kt METAR ETNT 252320Z AUTO 36005KT //// // ////// 10/08 Q1006 ///
00:20
L
10 °C 0 m - 360° 360° 4 kt METAR ETNT 252220Z AUTO 36004KT //// // ////// 10/08 Q1007 ///

September 25, 2022

Time Code Weather Temp. Visibility Ceiling Wind METAR/SPECI
23:20
L
10 °C 0 m - 360° 360° 5 kt METAR ETNT 252120Z AUTO 36005KT //// // ////// 10/08 Q1009 ///
22:20
L
10 °C 0 m - 360° 360° 4 kt METAR ETNT 252020Z AUTO 36004KT //// // ////// 10/08 Q1009 ///
21:20
L
11 °C 0 m - 360° 360° 5 kt METAR ETNT 251920Z AUTO 36005KT //// // ////// 11/08 Q1010 ///
20:20
L
9 °C 0 m - 360° 360° 3 kt METAR ETNT 251820Z AUTO 36003KT //// // ////// 09/07 Q1010 ///
19:20
L
11 °C 0 m - 360° 360° 3 kt METAR ETNT 251720Z AUTO 36003KT //// // ////// 11/07 Q1011 ///
18:20
L
15 °C 0 m - 360° 360° 5 kt METAR ETNT 251620Z AUTO 36005KT //// // ////// 15/07 Q1011 ///
17:20
L
15 °C 0 m - 010° 010° 6 kt METAR ETNT 251520Z AUTO 01006KT //// // ////// 15/06 Q1011 ///
16:20
L
15 °C 0 m - 010° 010° 6 kt METAR ETNT 251420Z AUTO 01006KT //// // ////// 15/06 Q1012 ///
15:20
L
15 °C 0 m - 010° 010° 6 kt METAR ETNT 251320Z AUTO 01006KT //// // ////// 15/07 Q1012 ///
14:20
L
15 °C 0 m - 010° 010° 6 kt METAR ETNT 251220Z AUTO 01006KT //// // ////// 15/08 Q1013 ///
13:20
L
15 °C 0 m - 020° 020° 9 kt METAR ETNT 251120Z AUTO 02009KT //// // ////// 15/08 Q1013 ///
12:20
L
16 °C 0 m - 020° 020° 8 kt METAR ETNT 251020Z AUTO 02008KT //// // ////// 16/08 Q1013 ///
11:20
L
15 °C 0 m - 030° 030° 10 kt METAR ETNT 250920Z AUTO 03010KT //// // ////// 15/08 Q1013 ///
10:20
L
15 °C 0 m - 050° 050° 6 kt METAR ETNT 250820Z AUTO 05006KT //// // ////// 15/08 Q1013 ///
09:20
L
13 °C 0 m - 060° 060° 4 kt METAR ETNT 250720Z AUTO 06004KT //// // ////// 13/08 Q1013 ///
08:20
L
11 °C 0 m - 080° 080° 3 kt METAR ETNT 250620Z AUTO 08003KT //// // ////// 11/08 Q1013 ///
07:20
L
11 °C 0 m - 090° 090° 3 kt METAR ETNT 250520Z AUTO 09003KT //// // ////// 11/09 Q1013 ///
06:20
L
11 °C 0 m - 090° 090° 4 kt METAR ETNT 250420Z AUTO 09004KT //// // ////// 11/09 Q1013 ///
05:20
L
11 °C 0 m - 100° 100° 4 kt METAR ETNT 250320Z AUTO 10004KT //// // ////// 11/10 Q1013 ///
04:20
L
11 °C 0 m - 100° 100° 4 kt METAR ETNT 250220Z AUTO 10004KT //// // ////// 11/09 Q1013 ///
03:20
L
12 °C 0 m - 110° 110° 4 kt METAR ETNT 250120Z AUTO 11004KT //// // ////// 12/09 Q1014 ///
02:20
L
11 °C 0 m - 120° 120° 3 kt METAR ETNT 250020Z AUTO 12003KT //// // ////// 11/09 Q1014 ///
01:20
L
11 °C 0 m - 120° 120° 3 kt METAR ETNT 242320Z AUTO 12003KT //// // ////// 11/09 Q1013 ///
00:20
L
12 °C 0 m - 130° 130° 5 kt METAR ETNT 242220Z AUTO 13005KT //// // ////// 12/09 Q1014 ///

September 24, 2022

Time Code Weather Temp. Visibility Ceiling Wind METAR/SPECI
23:20
L
13 °C 0 m - 130° 130° 5 kt METAR ETNT 242120Z AUTO 13005KT //// // ////// 13/10 Q1014 ///
22:20
L
13 °C 0 m - 140° 140° 7 kt METAR ETNT 242020Z AUTO 14007KT //// // ////// 13/10 Q1013 ///
21:20
L
13 °C 0 m - 150° 150° 6 kt METAR ETNT 241920Z AUTO 15006KT //// // ////// 13/10 Q1013 ///
20:20
L
13 °C 0 m - 150° 150° 7 kt METAR ETNT 241820Z AUTO 15007KT //// // ////// 13/11 Q1013 ///
19:20
L
13 °C 0 m - 160° 160° 7 kt METAR ETNT 241720Z AUTO 16007KT //// // ////// 13/12 Q1013 ///
18:20
L
13 °C 0 m - 160° 160° 7 kt METAR ETNT 241620Z AUTO 16007KT //// // ////// 13/11 Q1012 ///
17:20
L
14 °C 0 m - 170° 170° 9 kt METAR ETNT 241520Z AUTO 17009KT //// // ////// 14/12 Q1012 ///
Older data

We and third parties follow your internet behavior on our website with cookies. If you continue, we assume you agree with our cookie policy. Learn more